Time;durP1;ratioP1;P1;durP2;ratioP2;P2;SDS_P1;SDS_P2;PMS_P1;PMS_P2;Temp;Humidity;BMP_temperature;BMP_pressure;BME280_temperature;BME280_humidity;BME280_pressure;Samples;Min_cycle;Max_cycle;Signal;HPM_P1;HPM_P2
2021/10/21 00:01:03;;;;;;;2.00;1.80;;;;;;;;;;5094131;28;20187;-83
2021/10/21 00:03:37;;;;;;;2.00;1.90;;;;;;;;;;5094058;28;20578;-83
2021/10/21 00:06:05;;;;;;;2.42;2.25;;;;;;;;;;5094676;28;20191;-82
2021/10/21 00:08:43;;;;;;;2.20;2.10;;;;;;;;;;5094103;28;20216;-83
2021/10/21 00:11:14;;;;;;;2.42;2.22;;;;;;;;;;5094189;28;20180;-83
2021/10/21 00:13:43;;;;;;;3.55;2.15;;;;;;;;;;5094193;28;20195;-83
2021/10/21 00:16:12;;;;;;;2.40;2.20;;;;;;;;;;5094158;28;20204;-83
2021/10/21 00:18:40;;;;;;;2.72;2.33;;;;;;;;;;5093740;28;20235;-83
2021/10/21 00:21:08;;;;;;;3.33;2.10;;;;;;;;;;5093501;28;20180;-83
2021/10/21 00:23:37;;;;;;;2.10;2.00;;;;;;;;;;5093964;28;20180;-84
2021/10/21 00:26:16;;;;;;;2.28;2.08;;;;;;;;;;5094366;28;20211;-84
2021/10/21 00:28:45;;;;;;;2.58;2.38;;;;;;;;;;5093704;28;20565;-82
2021/10/21 00:31:15;;;;;;;2.22;2.03;;;;;;;;;;5093570;28;20754;-83
2021/10/21 00:33:43;;;;;;;2.53;2.03;;;;;;;;;;5053781;28;20186;-82
2021/10/21 00:36:11;;;;;;;2.78;2.13;;;;;;;;;;5054242;28;20189;-83
2021/10/21 00:38:41;;;;;;;4.55;2.25;;;;;;;;;;5053918;28;20251;-85
2021/10/21 00:41:10;;;;;;;2.50;2.30;;;;;;;;;;5053347;28;20207;-85
2021/10/21 00:43:42;;;;;;;3.58;2.60;;;;;;;;;;5053981;28;20182;-83
2021/10/21 00:46:13;;;;;;;2.35;2.15;;;;;;;;;;5053825;28;20190;-82
2021/10/21 00:48:41;;;;;;;1.83;1.73;;;;;;;;;;5053274;28;20217;-84
2021/10/21 00:51:15;;;;;;;2.05;1.88;;;;;;;;;;5053104;28;20779;-83
2021/10/21 00:53:44;;;;;;;4.18;2.22;;;;;;;;;;5053253;28;20626;-84
2021/10/21 00:56:21;;;;;;;2.50;2.30;;;;;;;;;;5054046;28;20643;-83
2021/10/21 00:58:50;;;;;;;2.22;2.13;;;;;;;;;;5053723;28;20217;-83
2021/10/21 01:01:18;;;;;;;3.08;2.20;;;;;;;;;;5054175;28;20644;-83
2021/10/21 01:03:46;;;;;;;2.10;2.00;;;;;;;;;;5053606;28;20196;-83
2021/10/21 01:06:20;;;;;;;1.90;1.80;;;;;;;;;;5053190;28;20213;-85
2021/10/21 01:08:52;;;;;;;1.98;1.75;;;;;;;;;;5053046;28;20213;-84
2021/10/21 01:11:20;;;;;;;1.90;1.70;;;;;;;;;;5052964;28;20273;-83
2021/10/21 01:13:49;;;;;;;1.85;1.75;;;;;;;;;;5055737;28;20200;-84
2021/10/21 01:16:17;;;;;;;1.67;1.58;;;;;;;;;;5056843;28;20212;-83
2021/10/21 01:18:46;;;;;;;1.73;1.40;;;;;;;;;;5056720;28;20216;-83
2021/10/21 01:21:16;;;;;;;3.00;2.40;;;;;;;;;;5057003;28;20209;-83
2021/10/21 01:23:44;;;;;;;3.22;2.05;;;;;;;;;;5057264;28;20181;-83
2021/10/21 01:26:13;;;;;;;2.08;1.98;;;;;;;;;;5057545;28;20202;-84
2021/10/21 01:28:44;;;;;;;1.70;1.60;;;;;;;;;;5057146;28;20244;-84
2021/10/21 01:31:11;;;;;;;1.60;1.50;;;;;;;;;;5057311;28;20534;-83
2021/10/21 01:33:39;;;;;;;1.60;1.50;;;;;;;;;;5097355;28;20571;-82
2021/10/21 01:36:15;;;;;;;1.33;1.33;;;;;;;;;;5096868;28;20181;-82
2021/10/21 01:38:43;;;;;;;1.98;1.50;;;;;;;;;;5097240;28;20583;-83
2021/10/21 01:41:11;;;;;;;1.17;1.17;;;;;;;;;;5096816;28;20196;-83
2021/10/21 01:43:45;;;;;;;1.70;1.48;;;;;;;;;;5097721;28;20204;-82
2021/10/21 01:46:13;;;;;;;1.77;1.67;;;;;;;;;;5097646;28;20180;-82
2021/10/21 01:48:42;;;;;;;1.20;1.20;;;;;;;;;;5096983;28;20596;-83
2021/10/21 01:51:11;;;;;;;2.08;1.58;;;;;;;;;;5096988;28;20789;-83
2021/10/21 01:53:40;;;;;;;1.50;1.40;;;;;;;;;;5096870;28;20212;-83
2021/10/21 01:56:08;;;;;;;1.63;1.52;;;;;;;;;;5096477;28;20197;-83
2021/10/21 01:58:36;;;;;;;1.50;1.40;;;;;;;;;;5096163;28;20220;-83
2021/10/21 02:01:12;;;;;;;1.30;1.20;;;;;;;;;;5096321;28;20211;-84
2021/10/21 02:03:40;;;;;;;1.65;1.55;;;;;;;;;;5095819;28;20184;-83
2021/10/21 02:06:07;;;;;;;1.95;1.40;;;;;;;;;;5094961;28;20201;-83
2021/10/21 02:08:35;;;;;;;1.30;1.17;;;;;;;;;;5095571;28;20235;-83
2021/10/21 02:11:04;;;;;;;1.20;1.20;;;;;;;;;;5095358;28;20196;-83
2021/10/21 02:13:32;;;;;;;0.90;0.90;;;;;;;;;;5095865;28;20203;-83
2021/10/21 02:15:59;;;;;;;2.05;0.98;;;;;;;;;;5095606;28;20550;-83
2021/10/21 02:18:28;;;;;;;1.20;1.10;;;;;;;;;;5095611;28;20229;-83
2021/10/21 02:20:56;;;;;;;1.10;1.10;;;;;;;;;;5095253;28;20752;-84
2021/10/21 02:23:23;;;;;;;2.53;1.30;;;;;;;;;;5095706;28;20208;-86
2021/10/21 02:25:51;;;;;;;1.27;1.23;;;;;;;;;;5095558;28;20184;-83
2021/10/21 02:28:19;;;;;;;1.50;1.40;;;;;;;;;;5095189;28;20216;-83
2021/10/21 02:30:47;;;;;;;1.15;1.15;;;;;;;;;;5095488;28;20567;-83
2021/10/21 02:33:16;;;;;;;1.10;1.00;;;;;;;;;;5094583;28;20234;-85
2021/10/21 02:35:44;;;;;;;1.40;1.30;;;;;;;;;;5095913;28;20181;-84
2021/10/21 02:38:13;;;;;;;1.35;1.25;;;;;;;;;;5095992;28;20243;-84
2021/10/21 02:40:41;;;;;;;1.30;1.20;;;;;;;;;;5095381;28;20204;-84
2021/10/21 02:43:08;;;;;;;1.10;1.00;;;;;;;;;;5095815;28;20189;-84
2021/10/21 02:45:37;;;;;;;0.82;0.82;;;;;;;;;;5095773;28;20267;-84
2021/10/21 02:48:05;;;;;;;1.02;1.02;;;;;;;;;;5095385;28;20224;-85
2021/10/21 02:50:33;;;;;;;1.17;1.10;;;;;;;;;;5095950;28;20193;-84
2021/10/21 02:53:00;;;;;;;1.30;1.20;;;;;;;;;;5095664;28;20596;-83
2021/10/21 02:55:28;;;;;;;1.30;0.93;;;;;;;;;;5095872;28;20188;-83
2021/10/21 02:57:55;;;;;;;1.30;1.20;;;;;;;;;;5095227;28;20224;-83
2021/10/21 03:00:23;;;;;;;1.30;1.23;;;;;;;;;;5095219;28;20211;-83
2021/10/21 03:02:52;;;;;;;0.90;0.90;;;;;;;;;;5095120;28;20204;-83
2021/10/21 03:05:19;;;;;;;1.08;1.08;;;;;;;;;;5093984;28;20204;-84
2021/10/21 03:07:47;;;;;;;1.40;1.30;;;;;;;;;;5095107;28;20204;-84
2021/10/21 03:10:14;;;;;;;1.30;1.20;;;;;;;;;;5095465;28;20176;-83
2021/10/21 03:12:42;;;;;;;0.85;0.85;;;;;;;;;;5095321;28;20207;-84
2021/10/21 03:15:11;;;;;;;1.20;1.10;;;;;;;;;;5094622;28;20196;-82
2021/10/21 03:17:41;;;;;;;1.08;0.93;;;;;;;;;;5095930;28;20774;-83
2021/10/21 03:20:12;;;;;;;1.88;1.08;;;;;;;;;;5095641;28;20181;-84
2021/10/21 03:22:40;;;;;;;1.10;1.10;;;;;;;;;;5095288;28;20204;-83
2021/10/21 03:25:09;;;;;;;1.00;1.00;;;;;;;;;;5096087;28;20195;-84
2021/10/21 03:27:38;;;;;;;1.70;1.27;;;;;;;;;;5095032;28;20185;-85
2021/10/21 03:30:08;;;;;;;1.00;1.00;;;;;;;;;;5094795;28;20555;-85
2021/10/21 03:32:36;;;;;;;0.73;0.70;;;;;;;;;;5093665;28;20228;-85
2021/10/21 03:35:04;;;;;;;1.00;1.00;;;;;;;;;;5093811;28;20196;-84
2021/10/21 03:37:33;;;;;;;1.65;1.33;;;;;;;;;;5094214;28;20555;-84
2021/10/21 03:40:00;;;;;;;1.15;1.10;;;;;;;;;;5093750;28;20189;-84
2021/10/21 03:42:28;;;;;;;1.02;1.02;;;;;;;;;;5093895;28;20678;-85
2021/10/21 03:44:57;;;;;;;1.10;1.00;;;;;;;;;;5094613;28;20177;-83
2021/10/21 03:47:24;;;;;;;1.05;0.98;;;;;;;;;;5093952;28;20283;-85
2021/10/21 03:49:52;;;;;;;0.70;0.70;;;;;;;;;;5093511;28;20235;-84
2021/10/21 03:52:19;;;;;;;0.80;0.68;;;;;;;;;;5093904;28;20204;-86
2021/10/21 03:54:49;;;;;;;0.70;0.70;;;;;;;;;;5093931;28;20577;-85
2021/10/21 03:57:16;;;;;;;1.23;0.73;;;;;;;;;;5093808;28;20215;-86
2021/10/21 03:59:44;;;;;;;1.08;0.98;;;;;;;;;;5093954;28;20223;-84
2021/10/21 04:02:11;;;;;;;0.70;0.70;;;;;;;;;;5093756;28;20674;-83
2021/10/21 04:04:39;;;;;;;2.50;1.08;;;;;;;;;;5093782;28;20204;-85
2021/10/21 04:07:07;;;;;;;0.80;0.80;;;;;;;;;;5093940;28;20204;-84
2021/10/21 04:09:35;;;;;;;1.67;0.95;;;;;;;;;;5094102;28;20216;-84
2021/10/21 04:12:04;;;;;;;1.05;0.77;;;;;;;;;;5094040;28;20200;-84
2021/10/21 04:14:32;;;;;;;2.38;1.45;;;;;;;;;;5095264;28;20189;-85
2021/10/21 04:17:00;;;;;;;0.80;0.80;;;;;;;;;;5095142;28;20246;-85
2021/10/21 04:19:28;;;;;;;1.88;0.80;;;;;;;;;;5095186;28;20219;-84
2021/10/21 04:21:56;;;;;;;0.60;0.60;;;;;;;;;;5094748;28;20200;-83
2021/10/21 04:24:23;;;;;;;0.73;0.70;;;;;;;;;;5095114;28;20200;-84
2021/10/21 04:26:50;;;;;;;1.33;0.75;;;;;;;;;;5094283;28;20200;-84
2021/10/21 04:29:19;;;;;;;1.58;1.23;;;;;;;;;;5093216;28;20231;-82
2021/10/21 04:31:46;;;;;;;1.05;0.93;;;;;;;;;;5092756;28;20698;-83
2021/10/21 04:34:14;;;;;;;0.60;0.60;;;;;;;;;;5093054;28;20553;-83
2021/10/21 04:36:41;;;;;;;0.98;0.75;;;;;;;;;;5092814;28;20185;-84
2021/10/21 04:39:09;;;;;;;0.73;0.65;;;;;;;;;;5092899;28;20563;-83
2021/10/21 04:41:36;;;;;;;0.60;0.60;;;;;;;;;;5092780;28;20215;-83
2021/10/21 04:44:04;;;;;;;1.73;1.00;;;;;;;;;;5092771;28;20189;-84
2021/10/21 04:46:33;;;;;;;3.33;1.00;;;;;;;;;;5092283;28;20211;-84
2021/10/21 04:49:01;;;;;;;1.77;0.80;;;;;;;;;;5091521;28;20227;-83
2021/10/21 04:51:28;;;;;;;3.38;1.02;;;;;;;;;;5093865;28;20195;-83
2021/10/21 04:53:55;;;;;;;1.80;0.70;;;;;;;;;;5094506;28;20189;-83
2021/10/21 04:56:23;;;;;;;1.50;0.85;;;;;;;;;;5091442;28;20191;-83
2021/10/21 04:58:50;;;;;;;1.45;0.98;;;;;;;;;;5091273;28;20228;-83
2021/10/21 05:01:18;;;;;;;2.33;1.00;;;;;;;;;;5091957;28;20204;-83
2021/10/21 05:03:48;;;;;;;1.25;0.73;;;;;;;;;;5092175;28;20643;-83
2021/10/21 05:06:16;;;;;;;1.48;0.52;;;;;;;;;;5092864;28;20189;-83
2021/10/21 05:08:43;;;;;;;1.63;0.90;;;;;;;;;;5092546;28;20277;-84
2021/10/21 05:11:11;;;;;;;0.98;0.80;;;;;;;;;;5092735;28;20649;-83
2021/10/21 05:13:38;;;;;;;1.33;0.70;;;;;;;;;;5092501;28;20734;-83
2021/10/21 05:16:06;;;;;;;1.20;0.80;;;;;;;;;;5092693;28;20208;-83
2021/10/21 05:18:34;;;;;;;1.05;0.52;;;;;;;;;;5092576;28;20246;-84
2021/10/21 05:21:03;;;;;;;0.70;0.70;;;;;;;;;;5092975;28;20188;-84
2021/10/21 05:23:30;;;;;;;1.73;0.88;;;;;;;;;;5092591;28;20216;-84
2021/10/21 05:25:58;;;;;;;0.70;0.55;;;;;;;;;;5092199;28;20194;-84
2021/10/21 05:28:25;;;;;;;1.00;0.60;;;;;;;;;;5091663;28;20716;-84
2021/10/21 05:30:52;;;;;;;1.42;1.00;;;;;;;;;;5091442;28;20202;-84
2021/10/21 05:33:23;;;;;;;3.03;0.88;;;;;;;;;;5090644;28;20231;-84
2021/10/21 05:35:50;;;;;;;11.55;2.70;;;;;;;;;;5090928;28;20204;-84
2021/10/21 05:38:20;;;;;;;2.38;1.10;;;;;;;;;;5090660;28;20208;-83
2021/10/21 05:40:47;;;;;;;1.60;0.93;;;;;;;;;;5091567;28;20192;-83
2021/10/21 05:43:15;;;;;;;1.33;0.88;;;;;;;;;;5091121;28;20204;-83
2021/10/21 05:45:42;;;;;;;1.27;0.90;;;;;;;;;;5091849;28;20192;-83
2021/10/21 05:48:12;;;;;;;1.63;0.95;;;;;;;;;;5092376;28;20220;-83
2021/10/21 05:50:40;;;;;;;1.50;0.90;;;;;;;;;;5091332;28;20282;-82
2021/10/21 05:53:08;;;;;;;0.75;0.75;;;;;;;;;;5091892;28;20220;-83
2021/10/21 05:55:37;;;;;;;2.05;1.48;;;;;;;;;;5091757;28;20200;-83
2021/10/21 05:58:05;;;;;;;0.88;0.68;;;;;;;;;;5091944;28;20220;-83
2021/10/21 06:00:32;;;;;;;0.77;0.60;;;;;;;;;;5095517;28;20945;-83
2021/10/21 06:03:00;;;;;;;2.00;0.80;;;;;;;;;;5095757;28;20205;-83
2021/10/21 06:05:27;;;;;;;1.85;1.35;;;;;;;;;;5111299;28;20199;-83
2021/10/21 06:07:56;;;;;;;2.22;1.35;;;;;;;;;;5115908;28;20626;-84
2021/10/21 06:10:24;;;;;;;2.25;1.23;;;;;;;;;;5116065;28;20239;-84
2021/10/21 06:12:52;;;;;;;1.08;0.80;;;;;;;;;;5116148;28;20183;-84
2021/10/21 06:15:21;;;;;;;1.30;0.60;;;;;;;;;;5109729;27;20208;-84
2021/10/21 06:17:48;;;;;;;1.13;0.75;;;;;;;;;;5095256;28;20631;-85
2021/10/21 06:20:16;;;;;;;3.67;0.80;;;;;;;;;;5095521;28;20192;-84
2021/10/21 06:22:44;;;;;;;1.45;0.80;;;;;;;;;;5095236;28;20220;-84
2021/10/21 06:25:13;;;;;;;0.88;0.80;;;;;;;;;;5095494;28;20189;-84
2021/10/21 06:27:41;;;;;;;2.58;0.80;;;;;;;;;;5095139;28;20189;-84
2021/10/21 06:30:10;;;;;;;1.67;1.02;;;;;;;;;;5095103;28;20181;-84
2021/10/21 06:32:38;;;;;;;3.03;0.70;;;;;;;;;;5094582;28;20239;-84
2021/10/21 06:35:08;;;;;;;2.20;0.90;;;;;;;;;;5095085;28;20192;-83
2021/10/21 06:37:35;;;;;;;0.95;0.85;;;;;;;;;;5094702;28;20854;-82
2021/10/21 06:40:03;;;;;;;0.45;0.45;;;;;;;;;;5094958;28;20198;-82
2021/10/21 06:42:31;;;;;;;1.20;0.90;;;;;;;;;;5095183;28;20227;-83
2021/10/21 06:44:58;;;;;;;1.45;1.15;;;;;;;;;;5094928;28;20192;-83
2021/10/21 06:47:27;;;;;;;2.05;1.40;;;;;;;;;;5094756;28;20195;-82
2021/10/21 06:49:54;;;;;;;1.42;1.02;;;;;;;;;;5094669;28;20232;-83
2021/10/21 06:52:22;;;;;;;0.90;0.80;;;;;;;;;;5094910;28;20184;-82
2021/10/21 06:54:49;;;;;;;1.00;0.60;;;;;;;;;;5092616;28;20200;-82
2021/10/21 06:57:17;;;;;;;0.85;0.68;;;;;;;;;;5094730;28;20210;-83
2021/10/21 06:59:45;;;;;;;0.75;0.68;;;;;;;;;;5094283;28;20220;-83
2021/10/21 07:02:12;;;;;;;1.98;0.88;;;;;;;;;;5094417;28;20210;-82
2021/10/21 07:04:41;;;;;;;1.33;1.02;;;;;;;;;;5094128;28;20220;-82
2021/10/21 07:07:09;;;;;;;1.30;1.00;;;;;;;;;;5094763;28;20204;-83
2021/10/21 07:09:36;;;;;;;1.27;0.45;;;;;;;;;;5096672;28;20228;-83
2021/10/21 07:12:04;;;;;;;0.70;0.68;;;;;;;;;;5094425;28;20188;-83
2021/10/21 07:14:31;;;;;;;2.85;0.63;;;;;;;;;;5093899;28;20196;-83
2021/10/21 07:16:59;;;;;;;0.35;0.35;;;;;;;;;;5095286;28;20196;-82
2021/10/21 07:19:26;;;;;;;2.17;0.80;;;;;;;;;;5094252;28;20224;-82
2021/10/21 07:21:55;;;;;;;0.73;0.40;;;;;;;;;;5094376;28;20197;-83
2021/10/21 07:24:22;;;;;;;0.40;0.38;;;;;;;;;;5094340;28;20303;-84
2021/10/21 07:26:52;;;;;;;0.50;0.50;;;;;;;;;;5094264;28;20545;-83
2021/10/21 07:29:19;;;;;;;0.90;0.50;;;;;;;;;;5094112;28;20743;-83
2021/10/21 07:31:46;;;;;;;0.38;0.38;;;;;;;;;;5094231;28;20239;-82
2021/10/21 07:34:14;;;;;;;3.83;1.35;;;;;;;;;;5093935;28;20208;-82
2021/10/21 07:36:41;;;;;;;0.40;0.40;;;;;;;;;;5094216;28;20181;-83
2021/10/21 07:39:10;;;;;;;0.40;0.40;;;;;;;;;;5093962;28;20231;-83
2021/10/21 07:41:37;;;;;;;0.28;0.28;;;;;;;;;;5095437;28;20191;-85
2021/10/21 07:44:05;;;;;;;2.90;0.60;;;;;;;;;;5094295;28;20570;-84
2021/10/21 07:46:34;;;;;;;0.55;0.55;;;;;;;;;;5087562;28;20683;-83
2021/10/21 07:49:02;;;;;;;0.60;0.50;;;;;;;;;;5079390;28;20585;-84
2021/10/21 07:51:31;;;;;;;0.20;0.20;;;;;;;;;;5073814;28;20205;-83
2021/10/21 07:53:59;;;;;;;2.35;0.55;;;;;;;;;;5074013;28;20201;-85
2021/10/21 07:56:30;;;;;;;0.25;0.20;;;;;;;;;;5102651;28;20199;-84
2021/10/21 07:58:58;;;;;;;0.10;0.10;;;;;;;;;;5114899;28;20220;-86
2021/10/21 08:01:25;;;;;;;0.25;0.25;;;;;;;;;;5115248;28;20672;-85
2021/10/21 08:03:54;;;;;;;0.93;0.30;;;;;;;;;;5114725;28;20214;-86
2021/10/21 08:06:22;;;;;;;0.65;0.28;;;;;;;;;;5114697;28;20200;-82
2021/10/21 08:08:50;;;;;;;0.20;0.20;;;;;;;;;;5114085;27;20212;-82
2021/10/21 08:11:17;;;;;;;0.38;0.38;;;;;;;;;;5114464;28;20202;-83
2021/10/21 08:13:46;;;;;;;0.38;0.38;;;;;;;;;;5103874;28;20573;-82
2021/10/21 08:16:13;;;;;;;0.28;0.28;;;;;;;;;;5103289;28;20185;-82
2021/10/21 08:18:41;;;;;;;0.30;0.30;;;;;;;;;;5101208;28;20220;-82
2021/10/21 08:21:08;;;;;;;0.38;0.35;;;;;;;;;;5103043;28;20188;-83
2021/10/21 08:23:36;;;;;;;0.30;0.30;;;;;;;;;;5101887;28;20224;-83
2021/10/21 08:26:04;;;;;;;0.15;0.15;;;;;;;;;;5101052;28;20200;-82
2021/10/21 08:28:32;;;;;;;0.20;0.20;;;;;;;;;;5102128;28;20227;-82
2021/10/21 08:31:01;;;;;;;0.32;0.32;;;;;;;;;;5103087;28;20647;-83
2021/10/21 08:33:29;;;;;;;0.20;0.20;;;;;;;;;;5097524;28;20234;-82
2021/10/21 08:35:56;;;;;;;1.00;0.30;;;;;;;;;;5102270;28;20843;-83
2021/10/21 08:38:24;;;;;;;0.80;0.30;;;;;;;;;;5100957;28;20212;-82
2021/10/21 08:40:51;;;;;;;0.28;0.25;;;;;;;;;;5103344;28;20271;-82
2021/10/21 08:43:18;;;;;;;0.68;0.60;;;;;;;;;;5101216;28;20192;-82
2021/10/21 08:45:48;;;;;;;0.95;0.30;;;;;;;;;;5095891;28;20208;-82
2021/10/21 08:48:17;;;;;;;0.98;0.50;;;;;;;;;;5103549;28;20816;-82
2021/10/21 08:50:44;;;;;;;0.65;0.52;;;;;;;;;;5102869;28;20208;-82
2021/10/21 08:53:12;;;;;;;1.15;0.60;;;;;;;;;;5103146;28;20260;-82
2021/10/21 08:55:39;;;;;;;0.30;0.30;;;;;;;;;;5099882;28;20274;-82
2021/10/21 08:58:07;;;;;;;0.47;0.47;;;;;;;;;;5101607;28;20260;-80
2021/10/21 09:00:37;;;;;;;0.90;0.40;;;;;;;;;;5100372;28;20196;-81
2021/10/21 09:03:06;;;;;;;0.50;0.50;;;;;;;;;;5102572;28;20245;-81
2021/10/21 09:05:37;;;;;;;0.40;0.40;;;;;;;;;;5101408;28;20220;-81
2021/10/21 09:08:08;;;;;;;0.60;0.60;;;;;;;;;;5100571;28;20227;-81
2021/10/21 09:10:45;;;;;;;0.60;0.60;;;;;;;;;;5101886;28;20252;-82
2021/10/21 09:13:25;;;;;;;0.40;0.40;;;;;;;;;;5100286;28;20196;-81
2021/10/21 09:15:56;;;;;;;0.60;0.60;;;;;;;;;;5102478;28;20211;-81
2021/10/21 09:18:24;;;;;;;0.45;0.45;;;;;;;;;;5104170;28;20215;-81
2021/10/21 09:20:55;;;;;;;2.03;1.08;;;;;;;;;;5101872;28;20191;-81
2021/10/21 09:23:29;;;;;;;2.03;0.88;;;;;;;;;;5102531;28;20188;-81
2021/10/21 09:26:08;;;;;;;1.40;0.90;;;;;;;;;;5102587;28;20227;-82
2021/10/21 09:28:36;;;;;;;1.00;0.82;;;;;;;;;;5099346;28;20842;-82
2021/10/21 09:31:08;;;;;;;0.50;0.50;;;;;;;;;;5102350;28;20203;-81
2021/10/21 09:33:47;;;;;;;1.25;1.25;;;;;;;;;;5100766;28;20255;-83
2021/10/21 09:36:21;;;;;;;0.50;0.50;;;;;;;;;;5107200;28;20646;-82
2021/10/21 09:38:51;;;;;;;0.60;0.60;;;;;;;;;;5107078;28;20219;-83
2021/10/21 09:41:21;;;;;;;1.30;0.70;;;;;;;;;;5099410;28;20196;-83
2021/10/21 09:43:49;;;;;;;1.58;0.70;;;;;;;;;;5096569;28;20665;-83
2021/10/21 09:46:40;;;;;;;2.20;0.73;;;;;;;;;;5094604;28;20208;-82
2021/10/21 09:49:29;;;;;;;1.27;0.75;;;;;;;;;;5096892;28;20228;-83
2021/10/21 09:51:58;;;;;;;1.17;0.80;;;;;;;;;;5097047;28;20185;-83
2021/10/21 09:54:26;;;;;;;1.67;1.58;;;;;;;;;;5096942;28;20555;-82
2021/10/21 09:57:02;;;;;;;2.40;1.10;;;;;;;;;;5096500;28;20192;-83
2021/10/21 09:59:31;;;;;;;0.93;0.80;;;;;;;;;;5097579;28;20247;-82
2021/10/21 10:02:08;;;;;;;3.88;1.23;;;;;;;;;;5097198;28;20255;-84
2021/10/21 10:04:36;;;;;;;2.95;0.70;;;;;;;;;;5096901;28;20205;-83
2021/10/21 10:07:06;;;;;;;3.72;1.23;;;;;;;;;;5097053;28;20188;-83
2021/10/21 10:09:34;;;;;;;1.65;0.90;;;;;;;;;;5096723;28;20224;-83
2021/10/21 10:12:05;;;;;;;1.58;1.48;;;;;;;;;;5096282;28;20181;-83
2021/10/21 10:14:34;;;;;;;2.00;1.00;;;;;;;;;;5096317;28;20238;-82
2021/10/21 10:17:02;;;;;;;1.08;0.98;;;;;;;;;;5096361;28;20588;-83
2021/10/21 10:19:31;;;;;;;1.27;0.63;;;;;;;;;;5096607;28;20254;-82
2021/10/21 10:22:01;;;;;;;2.35;1.05;;;;;;;;;;5096516;28;20250;-81
2021/10/21 10:24:32;;;;;;;0.80;0.80;;;;;;;;;;5096784;28;20192;-82
2021/10/21 10:27:03;;;;;;;1.05;0.80;;;;;;;;;;5096356;28;20291;-82
2021/10/21 10:29:46;;;;;;;2.58;0.95;;;;;;;;;;5096615;28;20224;-82
2021/10/21 10:32:40;;;;;;;1.92;1.10;;;;;;;;;;5095751;28;20220;-82
2021/10/21 10:35:11;;;;;;;1.65;0.93;;;;;;;;;;5096413;28;20659;-83
2021/10/21 10:37:57;;;;;;;6.35;1.83;;;;;;;;;;5095937;28;20199;-83
2021/10/21 10:40:48;;;;;;;3.38;1.63;;;;;;;;;;5075538;28;20181;-82
2021/10/21 10:43:19;;;;;;;2.50;1.60;;;;;;;;;;5070643;28;20212;-83
2021/10/21 10:45:52;;;;;;;1.38;1.00;;;;;;;;;;5099008;28;20204;-82
2021/10/21 10:48:56;;;;;;;2.05;1.00;;;;;;;;;;5108175;28;20310;-84
2021/10/21 10:51:58;;;;;;;3.08;2.00;;;;;;;;;;5074487;28;20185;-82
2021/10/21 10:54:55;;;;;;;1.98;1.25;;;;;;;;;;5074942;28;20273;-83
2021/10/21 10:57:58;;;;;;;2.53;1.63;;;;;;;;;;5105430;28;20188;-82
2021/10/21 11:00:49;;;;;;;1.30;1.20;;;;;;;;;;5112198;28;20187;-83
2021/10/21 11:03:31;;;;;;;3.10;1.33;;;;;;;;;;5074033;28;20189;-83
2021/10/21 11:06:01;;;;;;;1.45;1.25;;;;;;;;;;5074608;28;20296;-82
2021/10/21 11:08:53;;;;;;;4.88;1.50;;;;;;;;;;5075001;28;20221;-82
2021/10/21 11:11:44;;;;;;;3.50;1.00;;;;;;;;;;5075104;28;20192;-84
2021/10/21 11:14:14;;;;;;;2.15;1.20;;;;;;;;;;5074834;28;20193;-82
2021/10/21 11:16:53;;;;;;;1.90;1.23;;;;;;;;;;5075096;28;20207;-83
2021/10/21 11:19:53;;;;;;;1.50;1.10;;;;;;;;;;5074875;28;20252;-83
2021/10/21 11:22:41;;;;;;;1.85;1.73;;;;;;;;;;5069578;28;20246;-83
2021/10/21 11:25:12;;;;;;;1.70;1.60;;;;;;;;;;5074020;28;20352;-83
2021/10/21 11:27:41;;;;;;;1.85;1.38;;;;;;;;;;5074304;28;20247;-84
2021/10/21 11:30:19;;;;;;;1.48;1.15;;;;;;;;;;5073916;28;20586;-83
2021/10/21 11:32:47;;;;;;;1.27;1.00;;;;;;;;;;5073674;28;20224;-84
2021/10/21 11:35:19;;;;;;;2.92;1.23;;;;;;;;;;5073820;28;20637;-83
2021/10/21 11:37:50;;;;;;;1.70;1.05;;;;;;;;;;5092349;28;20204;-83
2021/10/21 11:40:31;;;;;;;2.28;1.05;;;;;;;;;;5094108;28;20181;-83
2021/10/21 11:43:01;;;;;;;1.00;0.82;;;;;;;;;;5094193;28;20195;-83
2021/10/21 11:45:34;;;;;;;2.10;1.30;;;;;;;;;;5093944;28;20201;-82
2021/10/21 11:48:04;;;;;;;1.15;1.05;;;;;;;;;;5093759;28;20217;-82
2021/10/21 11:50:39;;;;;;;2.15;1.20;;;;;;;;;;5094050;28;20188;-82
2021/10/21 11:53:11;;;;;;;1.50;1.15;;;;;;;;;;5094095;28;20194;-84
2021/10/21 11:55:39;;;;;;;0.85;0.85;;;;;;;;;;5093716;28;20191;-82
2021/10/21 11:58:12;;;;;;;1.48;0.90;;;;;;;;;;5093080;28;20227;-84
2021/10/21 12:00:43;;;;;;;1.40;0.98;;;;;;;;;;5093636;28;20177;-84
2021/10/21 12:03:11;;;;;;;0.90;0.90;;;;;;;;;;5093707;28;20535;-82
2021/10/21 12:05:41;;;;;;;3.13;1.40;;;;;;;;;;5093097;28;20219;-84
2021/10/21 12:08:10;;;;;;;1.52;0.80;;;;;;;;;;5093825;28;20271;-82
2021/10/21 12:10:43;;;;;;;0.73;0.73;;;;;;;;;;5094554;28;20196;-83
2021/10/21 12:13:24;;;;;;;0.73;0.73;;;;;;;;;;5094742;28;20227;-83
2021/10/21 12:15:55;;;;;;;1.10;0.95;;;;;;;;;;5080726;28;20201;-83
2021/10/21 12:18:24;;;;;;;0.80;0.80;;;;;;;;;;5074139;28;20225;-84
2021/10/21 12:20:53;;;;;;;1.05;0.75;;;;;;;;;;5083010;28;20290;-84
2021/10/21 12:23:25;;;;;;;0.70;0.70;;;;;;;;;;5114321;28;20199;-83
2021/10/21 12:25:58;;;;;;;2.22;0.90;;;;;;;;;;5077978;28;20649;-83
2021/10/21 12:28:40;;;;;;;1.13;0.90;;;;;;;;;;5079465;28;20622;-83
2021/10/21 12:31:21;;;;;;;1.85;0.80;;;;;;;;;;5074151;28;20189;-84
2021/10/21 12:33:54;;;;;;;0.65;0.65;;;;;;;;;;5073480;28;20245;-85
2021/10/21 12:36:25;;;;;;;0.73;0.73;;;;;;;;;;5074006;28;20556;-84
2021/10/21 12:38:53;;;;;;;1.33;0.70;;;;;;;;;;5077316;28;20651;-85
2021/10/21 12:41:22;;;;;;;3.35;1.58;;;;;;;;;;5094498;28;20188;-83
2021/10/21 12:44:04;;;;;;;1.48;0.93;;;;;;;;;;5090585;28;20210;-83
2021/10/21 12:46:33;;;;;;;1.50;0.80;;;;;;;;;;5093763;28;20215;-84
2021/10/21 12:49:15;;;;;;;0.95;0.80;;;;;;;;;;5093348;28;20566;-83
2021/10/21 12:51:45;;;;;;;2.00;1.10;;;;;;;;;;5093660;28;20187;-83
2021/10/21 12:54:25;;;;;;;2.28;0.93;;;;;;;;;;5076536;28;20208;-84
2021/10/21 12:56:58;;;;;;;1.27;0.98;;;;;;;;;;5073772;28;20556;-84
2021/10/21 12:59:25;;;;;;;0.40;0.40;;;;;;;;;;5088216;28;20270;-83
2021/10/21 13:02:03;;;;;;;0.90;0.80;;;;;;;;;;5093165;28;20211;-83
2021/10/21 13:04:42;;;;;;;1.52;0.95;;;;;;;;;;5073180;28;20765;-85
2021/10/21 13:07:11;;;;;;;2.08;0.93;;;;;;;;;;5073616;28;20205;-83
2021/10/21 13:09:40;;;;;;;3.70;2.50;;;;;;;;;;5072731;28;20228;-84
2021/10/21 13:12:08;;;;;;;2.13;0.80;;;;;;;;;;5075052;28;20183;-84
2021/10/21 13:14:38;;;;;;;2.85;1.67;;;;;;;;;;5093378;28;20176;-85
2021/10/21 13:17:07;;;;;;;1.75;1.05;;;;;;;;;;5093636;28;20291;-83
2021/10/21 13:19:36;;;;;;;0.93;0.80;;;;;;;;;;5093664;28;20278;-83
2021/10/21 13:22:04;;;;;;;1.00;0.93;;;;;;;;;;5094044;28;20618;-85
2021/10/21 13:24:31;;;;;;;2.13;0.95;;;;;;;;;;5094310;28;20678;-83
2021/10/21 13:27:00;;;;;;;1.00;0.93;;;;;;;;;;5093987;28;20221;-85
2021/10/21 13:29:27;;;;;;;1.20;0.98;;;;;;;;;;5093928;28;20289;-85
2021/10/21 13:31:55;;;;;;;5.35;1.60;;;;;;;;;;5093529;28;20220;-84
2021/10/21 13:34:26;;;;;;;1.05;0.90;;;;;;;;;;5093731;28;20199;-84
2021/10/21 13:36:55;;;;;;;0.60;0.60;;;;;;;;;;5094295;28;20194;-85
2021/10/21 13:39:22;;;;;;;0.75;0.63;;;;;;;;;;5093746;28;20220;-83
2021/10/21 13:41:50;;;;;;;0.55;0.55;;;;;;;;;;5095035;28;20195;-84
2021/10/21 13:44:18;;;;;;;0.60;0.60;;;;;;;;;;5094906;28;20183;-84
2021/10/21 13:46:45;;;;;;;2.10;0.85;;;;;;;;;;5095653;28;20212;-83
2021/10/21 13:49:14;;;;;;;0.40;0.40;;;;;;;;;;5094506;28;20224;-84
2021/10/21 13:51:43;;;;;;;0.38;0.38;;;;;;;;;;5094108;28;20200;-84
2021/10/21 13:54:11;;;;;;;0.22;0.22;;;;;;;;;;5095015;28;20250;-84
2021/10/21 13:56:38;;;;;;;0.63;0.63;;;;;;;;;;5095078;28;20200;-85
2021/10/21 13:59:06;;;;;;;0.35;0.35;;;;;;;;;;5095799;28;20234;-83
2021/10/21 14:01:33;;;;;;;0.30;0.30;;;;;;;;;;5091684;28;20652;-84
2021/10/21 14:04:01;;;;;;;0.30;0.30;;;;;;;;;;5074944;28;20221;-83
2021/10/21 14:06:30;;;;;;;0.20;0.20;;;;;;;;;;5074087;28;20240;-83
2021/10/21 14:09:01;;;;;;;0.20;0.20;;;;;;;;;;5074456;28;20221;-83
2021/10/21 14:11:30;;;;;;;0.20;0.20;;;;;;;;;;5077226;28;20212;-83
2021/10/21 14:13:59;;;;;;;0.28;0.28;;;;;;;;;;5094295;28;20204;-84
2021/10/21 14:16:28;;;;;;;0.15;0.15;;;;;;;;;;5094691;28;20561;-83
2021/10/21 14:18:55;;;;;;;0.57;0.50;;;;;;;;;;5093091;28;20209;-84
2021/10/21 14:21:23;;;;;;;2.53;0.40;;;;;;;;;;5092816;28;20672;-83
2021/10/21 14:23:51;;;;;;;0.32;0.32;;;;;;;;;;5097600;28;20188;-83
2021/10/21 14:26:20;;;;;;;0.30;0.30;;;;;;;;;;5096432;28;20191;-84
2021/10/21 14:28:47;;;;;;;0.88;0.70;;;;;;;;;;5112643;28;20230;-84
2021/10/21 14:31:15;;;;;;;0.40;0.40;;;;;;;;;;5108587;28;20195;-84
2021/10/21 14:33:43;;;;;;;0.47;0.47;;;;;;;;;;5091718;28;20239;-83
2021/10/21 14:36:11;;;;;;;0.57;0.57;;;;;;;;;;5076675;28;20193;-83
2021/10/21 14:38:39;;;;;;;0.93;0.38;;;;;;;;;;5104850;28;20216;-83
2021/10/21 14:41:06;;;;;;;0.47;0.47;;;;;;;;;;5099979;28;20196;-83
2021/10/21 14:43:35;;;;;;;0.30;0.30;;;;;;;;;;5096952;28;20203;-84
2021/10/21 14:46:05;;;;;;;0.43;0.43;;;;;;;;;;5098175;28;20554;-86
2021/10/21 14:48:33;;;;;;;0.43;0.40;;;;;;;;;;5097634;28;20265;-86
2021/10/21 14:51:00;;;;;;;0.40;0.40;;;;;;;;;;5096377;28;20607;-85
2021/10/21 14:53:28;;;;;;;0.28;0.28;;;;;;;;;;5099494;28;20199;-86
2021/10/21 14:55:55;;;;;;;1.10;0.40;;;;;;;;;;5099750;28;20238;-84
2021/10/21 14:58:22;;;;;;;0.30;0.30;;;;;;;;;;5099001;28;20221;-85
2021/10/21 15:00:53;;;;;;;0.50;0.50;;;;;;;;;;5098233;28;20187;-85